Time;durP1;ratioP1;P1;durP2;ratioP2;P2;SDS_P1;SDS_P2;PMS_P1;PMS_P2;Temp;Humidity;BMP_temperature;BMP_pressure;BME280_temperature;BME280_humidity;BME280_pressure;Samples;Min_cycle;Max_cycle;Signal;HPM_P1;HPM_P2
2022/10/11 00:01:38;;;;;;;19.67;11.37;;;;;;;;;;5156953;27;20443;-72
2022/10/11 00:04:06;;;;;;;14.17;11.33;;;;;;;;;;5156282;27;20448;-72
2022/10/11 00:06:36;;;;;;;18.60;12.70;;;;;;;;;;5156730;27;20463;-72
2022/10/11 00:09:04;;;;;;;22.00;12.40;;;;;;;;;;5157058;27;20451;-72
2022/10/11 00:11:31;;;;;;;20.40;12.53;;;;;;;;;;5156646;27;20459;-72
2022/10/11 00:13:58;;;;;;;17.73;12.33;;;;;;;;;;5156350;27;20449;-72
2022/10/11 00:16:26;;;;;;;18.77;13.07;;;;;;;;;;5156735;27;20887;-72
2022/10/11 00:18:53;;;;;;;18.90;13.97;;;;;;;;;;5156692;27;20538;-72
2022/10/11 00:21:21;;;;;;;16.37;13.07;;;;;;;;;;5154643;27;21020;-72
2022/10/11 00:23:48;;;;;;;22.10;13.20;;;;;;;;;;5156077;27;20499;-72
2022/10/11 00:26:16;;;;;;;16.90;12.63;;;;;;;;;;5156642;27;20872;-72
2022/10/11 00:28:43;;;;;;;18.60;13.10;;;;;;;;;;5156593;27;20447;-72
2022/10/11 00:31:12;;;;;;;17.40;12.73;;;;;;;;;;5156502;27;20538;-72
2022/10/11 00:33:39;;;;;;;19.63;11.57;;;;;;;;;;5155748;27;20502;-72
2022/10/11 00:36:07;;;;;;;21.03;11.60;;;;;;;;;;5156265;27;20473;-72
2022/10/11 00:38:35;;;;;;;18.40;11.63;;;;;;;;;;5155922;27;20448;-72
2022/10/11 00:41:02;;;;;;;16.63;10.70;;;;;;;;;;5156339;27;20777;-72
2022/10/11 00:43:30;;;;;;;12.23;9.07;;;;;;;;;;5155651;27;21011;-72
2022/10/11 00:46:03;;;;;;;15.20;10.53;;;;;;;;;;5156071;27;20510;-72
2022/10/11 00:48:31;;;;;;;14.93;9.07;;;;;;;;;;5155897;27;20487;-72
2022/10/11 00:51:00;;;;;;;15.40;9.97;;;;;;;;;;5156081;27;20454;-72
2022/10/11 00:53:28;;;;;;;12.70;8.60;;;;;;;;;;5155774;27;20462;-72
2022/10/11 00:56:01;;;;;;;14.93;8.87;;;;;;;;;;5154465;27;20475;-71
2022/10/11 00:58:28;;;;;;;12.33;9.40;;;;;;;;;;5155859;27;20454;-72
2022/10/11 01:00:55;;;;;;;11.33;8.67;;;;;;;;;;5156011;27;20459;-72
2022/10/11 01:03:25;;;;;;;11.40;8.40;;;;;;;;;;5155601;27;20487;-72
2022/10/11 01:05:53;;;;;;;13.10;9.00;;;;;;;;;;5155805;27;20475;-72
2022/10/11 01:08:20;;;;;;;10.20;7.60;;;;;;;;;;5155805;27;20448;-72
2022/10/11 01:10:47;;;;;;;13.27;9.27;;;;;;;;;;5155387;27;20460;-72
2022/10/11 01:13:19;;;;;;;13.97;9.40;;;;;;;;;;5155670;27;20454;-72
2022/10/11 01:15:48;;;;;;;9.90;7.60;;;;;;;;;;5155040;27;20477;-72
2022/10/11 01:18:19;;;;;;;23.00;8.90;;;;;;;;;;5155563;27;20450;-72
2022/10/11 01:20:52;;;;;;;13.40;10.97;;;;;;;;;;5153132;27;20492;-72
2022/10/11 01:23:37;;;;;;;18.77;8.67;;;;;;;;;;5155164;27;20514;-72
2022/10/11 01:26:18;;;;;;;10.90;9.73;;;;;;;;;;5155355;27;20472;-71
2022/10/11 01:28:49;;;;;;;13.50;10.40;;;;;;;;;;5155241;27;20451;-72
2022/10/11 01:31:21;;;;;;;11.97;8.70;;;;;;;;;;5155283;27;20453;-72
2022/10/11 01:33:52;;;;;;;13.07;7.80;;;;;;;;;;5154565;27;20451;-71
2022/10/11 01:36:26;;;;;;;9.90;7.27;;;;;;;;;;5155121;27;20478;-72
2022/10/11 01:38:54;;;;;;;11.33;9.10;;;;;;;;;;5155063;27;20490;-72
2022/10/11 01:41:24;;;;;;;10.73;7.80;;;;;;;;;;5155123;27;20450;-72
2022/10/11 01:43:54;;;;;;;10.87;8.23;;;;;;;;;;5154303;27;20487;-72
2022/10/11 01:46:23;;;;;;;12.23;8.07;;;;;;;;;;5154814;27;20479;-72
2022/10/11 01:48:51;;;;;;;9.77;7.70;;;;;;;;;;5154803;27;20452;-72
2022/10/11 01:51:19;;;;;;;9.73;6.97;;;;;;;;;;5154466;27;20443;-72
2022/10/11 01:54:09;;;;;;;10.23;7.87;;;;;;;;;;5154333;27;20790;-72
2022/10/11 01:56:45;;;;;;;13.97;10.63;;;;;;;;;;5153709;27;20467;-71
2022/10/11 01:59:19;;;;;;;10.27;7.00;;;;;;;;;;5154890;27;20811;-72
2022/10/11 02:01:54;;;;;;;13.73;6.10;;;;;;;;;;5155041;27;20544;-72
2022/10/11 02:04:27;;;;;;;10.07;7.33;;;;;;;;;;5154031;27;21003;-72
2022/10/11 02:06:58;;;;;;;9.67;6.77;;;;;;;;;;5155010;27;20432;-72
2022/10/11 02:09:31;;;;;;;7.50;5.90;;;;;;;;;;5154564;27;20791;-72
2022/10/11 02:12:02;;;;;;;7.10;6.20;;;;;;;;;;5154592;27;20456;-72
2022/10/11 02:14:33;;;;;;;10.63;8.37;;;;;;;;;;5153825;27;20448;-72
2022/10/11 02:17:06;;;;;;;7.03;5.73;;;;;;;;;;5154755;27;20836;-72
2022/10/11 02:19:35;;;;;;;8.60;7.40;;;;;;;;;;5154446;27;20454;-72
2022/10/11 02:22:04;;;;;;;15.17;7.60;;;;;;;;;;5154483;27;20463;-72
2022/10/11 02:24:32;;;;;;;9.70;6.43;;;;;;;;;;5153679;27;20491;-72
2022/10/11 02:27:00;;;;;;;8.70;6.53;;;;;;;;;;5154492;27;20447;-72
2022/10/11 02:29:29;;;;;;;7.23;5.13;;;;;;;;;;5154279;27;20466;-72
2022/10/11 02:31:57;;;;;;;6.00;5.40;;;;;;;;;;5154462;27;20808;-71
2022/10/11 02:34:27;;;;;;;8.00;5.70;;;;;;;;;;5153513;27;20816;-72
2022/10/11 02:36:58;;;;;;;6.77;6.07;;;;;;;;;;5154458;27;20443;-72
2022/10/11 02:39:28;;;;;;;7.67;6.60;;;;;;;;;;5154422;27;20955;-72
2022/10/11 02:41:57;;;;;;;11.00;6.70;;;;;;;;;;5154451;27;20795;-72
2022/10/11 02:44:28;;;;;;;14.03;6.30;;;;;;;;;;5153830;27;20570;-72
2022/10/11 02:46:56;;;;;;;10.10;6.30;;;;;;;;;;5154441;27;20462;-72
2022/10/11 02:49:23;;;;;;;8.60;6.83;;;;;;;;;;5154214;27;20443;-72
2022/10/11 02:51:51;;;;;;;10.37;7.67;;;;;;;;;;5154353;27;20454;-72
2022/10/11 02:54:18;;;;;;;11.87;7.60;;;;;;;;;;5153513;27;20458;-71
2022/10/11 02:56:46;;;;;;;10.83;6.73;;;;;;;;;;5153168;27;20455;-72
2022/10/11 02:59:13;;;;;;;15.00;6.50;;;;;;;;;;5154048;27;20456;-72
2022/10/11 03:01:40;;;;;;;10.20;6.70;;;;;;;;;;5154404;27;20447;-72
2022/10/11 03:04:07;;;;;;;9.10;6.70;;;;;;;;;;5157712;27;21014;-72
2022/10/11 03:06:34;;;;;;;10.97;7.20;;;;;;;;;;5158105;27;20467;-72
2022/10/11 03:09:03;;;;;;;7.67;6.63;;;;;;;;;;5158286;27;20462;-72
2022/10/11 03:11:30;;;;;;;8.63;7.33;;;;;;;;;;5157711;27;20956;-72
2022/10/11 03:13:57;;;;;;;10.83;7.07;;;;;;;;;;5157249;27;20440;-71
2022/10/11 03:16:24;;;;;;;11.93;6.93;;;;;;;;;;5157909;27;20463;-72
2022/10/11 03:18:51;;;;;;;10.20;7.53;;;;;;;;;;5158121;27;20439;-72
2022/10/11 03:21:18;;;;;;;12.77;6.90;;;;;;;;;;5157915;27;20447;-72
2022/10/11 03:23:45;;;;;;;18.17;6.70;;;;;;;;;;5156897;27;20856;-72
2022/10/11 03:26:14;;;;;;;6.23;5.60;;;;;;;;;;5157511;27;20471;-72
2022/10/11 03:28:41;;;;;;;6.87;5.27;;;;;;;;;;5157752;27;20824;-72
2022/10/11 03:31:08;;;;;;;8.40;6.70;;;;;;;;;;5157712;27;20805;-72
2022/10/11 03:33:35;;;;;;;10.70;6.80;;;;;;;;;;5157002;27;20458;-71
2022/10/11 03:36:02;;;;;;;14.60;7.53;;;;;;;;;;5157741;27;20482;-71
2022/10/11 03:38:30;;;;;;;8.30;6.27;;;;;;;;;;5157564;27;20455;-72
2022/10/11 03:40:57;;;;;;;8.73;6.57;;;;;;;;;;5157502;27;20443;-72
2022/10/11 03:43:25;;;;;;;15.23;8.57;;;;;;;;;;5157188;27;20489;-72
2022/10/11 03:45:52;;;;;;;9.77;6.43;;;;;;;;;;5157033;27;20464;-72
2022/10/11 03:48:19;;;;;;;7.93;6.27;;;;;;;;;;5157451;27;20448;-72
2022/10/11 03:50:47;;;;;;;8.33;6.50;;;;;;;;;;5157208;27;20443;-72
2022/10/11 03:53:14;;;;;;;8.80;6.57;;;;;;;;;;5157264;27;20811;-72
2022/10/11 03:55:42;;;;;;;9.60;5.70;;;;;;;;;;5156274;27;20464;-72
2022/10/11 03:58:09;;;;;;;8.00;6.10;;;;;;;;;;5156260;27;20443;-72
2022/10/11 04:00:37;;;;;;;9.27;6.13;;;;;;;;;;5157114;27;20929;-72
2022/10/11 04:03:04;;;;;;;9.70;6.77;;;;;;;;;;5157052;27;20483;-72
2022/10/11 04:05:32;;;;;;;6.87;6.17;;;;;;;;;;5156200;27;20479;-72
2022/10/11 04:07:59;;;;;;;7.77;5.63;;;;;;;;;;5156858;27;20970;-72
2022/10/11 04:10:26;;;;;;;6.93;6.13;;;;;;;;;;5156820;27;20458;-72
2022/10/11 04:12:53;;;;;;;10.77;8.30;;;;;;;;;;5156327;27;20477;-72
2022/10/11 04:15:20;;;;;;;12.90;7.40;;;;;;;;;;5156486;27;20471;-72
2022/10/11 04:17:49;;;;;;;11.53;6.00;;;;;;;;;;5156929;27;20442;-72
2022/10/11 04:20:16;;;;;;;7.70;6.20;;;;;;;;;;5156762;27;20929;-71
2022/10/11 04:22:43;;;;;;;7.37;6.00;;;;;;;;;;5156454;27;20444;-72
2022/10/11 04:25:10;;;;;;;8.60;6.30;;;;;;;;;;5155936;27;20487;-72
2022/10/11 04:27:37;;;;;;;10.97;6.40;;;;;;;;;;5156484;27;20987;-72
2022/10/11 04:30:05;;;;;;;14.03;8.37;;;;;;;;;;5156420;27;20443;-72
2022/10/11 04:32:32;;;;;;;10.87;7.80;;;;;;;;;;5156416;27;20454;-72
2022/10/11 04:35:01;;;;;;;11.63;8.17;;;;;;;;;;5155769;27;20964;-72
2022/10/11 04:37:28;;;;;;;8.37;6.57;;;;;;;;;;5156332;27;20451;-72
2022/10/11 04:39:55;;;;;;;10.30;6.27;;;;;;;;;;5156374;27;20456;-72
2022/10/11 04:42:22;;;;;;;8.80;6.00;;;;;;;;;;5156266;27;20467;-72
2022/10/11 04:44:49;;;;;;;9.40;5.50;;;;;;;;;;5155532;27;21022;-72
2022/10/11 04:47:16;;;;;;;6.40;5.60;;;;;;;;;;5156376;27;20805;-73
2022/10/11 04:49:44;;;;;;;10.17;7.70;;;;;;;;;;5156054;27;20440;-72
2022/10/11 04:52:12;;;;;;;8.47;7.10;;;;;;;;;;5156308;27;20466;-72
2022/10/11 04:54:39;;;;;;;8.87;6.20;;;;;;;;;;5155314;27;20956;-72
2022/10/11 04:57:06;;;;;;;20.57;8.93;;;;;;;;;;5154803;27;20447;-72
2022/10/11 04:59:34;;;;;;;9.73;7.20;;;;;;;;;;5156244;27;20451;-72
2022/10/11 05:02:01;;;;;;;9.27;6.20;;;;;;;;;;5155955;27;20932;-72
2022/10/11 05:04:28;;;;;;;9.20;6.77;;;;;;;;;;5154771;27;20491;-72
2022/10/11 05:06:55;;;;;;;9.50;7.50;;;;;;;;;;5155868;27;20451;-72
2022/10/11 05:09:24;;;;;;;11.83;6.70;;;;;;;;;;5155838;27;20447;-72
2022/10/11 05:11:51;;;;;;;14.57;7.47;;;;;;;;;;5155686;27;20460;-72
2022/10/11 05:14:18;;;;;;;11.47;7.60;;;;;;;;;;5154998;27;20454;-72
2022/10/11 05:16:45;;;;;;;9.53;6.90;;;;;;;;;;5155489;27;20451;-73
2022/10/11 05:19:12;;;;;;;8.93;6.67;;;;;;;;;;5155794;27;20459;-73
2022/10/11 05:21:41;;;;;;;11.83;7.40;;;;;;;;;;5155707;27;20479;-73
2022/10/11 05:24:08;;;;;;;11.60;7.47;;;;;;;;;;5154565;27;20488;-73
2022/10/11 05:26:36;;;;;;;8.50;7.50;;;;;;;;;;5152119;27;20475;-73
2022/10/11 05:29:04;;;;;;;13.87;8.80;;;;;;;;;;5154214;27;20452;-73
2022/10/11 05:31:31;;;;;;;10.83;7.27;;;;;;;;;;5155068;27;20436;-73
2022/10/11 05:33:58;;;;;;;12.00;8.40;;;;;;;;;;5154736;27;20878;-73
2022/10/11 05:36:26;;;;;;;13.63;7.00;;;;;;;;;;5155057;27;20478;-73
2022/10/11 05:38:53;;;;;;;10.93;8.77;;;;;;;;;;5154211;27;20444;-72
2022/10/11 05:41:20;;;;;;;11.43;8.40;;;;;;;;;;5154810;27;20433;-72
2022/10/11 05:43:48;;;;;;;16.80;8.23;;;;;;;;;;5154435;27;21011;-72
2022/10/11 05:46:15;;;;;;;11.47;7.63;;;;;;;;;;5154427;27;20468;-72
2022/10/11 05:48:43;;;;;;;10.50;8.67;;;;;;;;;;5154584;27;20448;-72
2022/10/11 05:51:11;;;;;;;10.13;8.70;;;;;;;;;;5154729;27;20940;-72
2022/10/11 05:53:38;;;;;;;13.40;9.23;;;;;;;;;;5154019;27;20458;-72
2022/10/11 05:56:06;;;;;;;10.27;8.20;;;;;;;;;;5152780;27;20483;-72
2022/10/11 05:58:33;;;;;;;19.47;9.40;;;;;;;;;;5154435;27;20452;-72
2022/10/11 06:01:02;;;;;;;11.00;7.90;;;;;;;;;;5154509;27;20451;-72
2022/10/11 06:03:29;;;;;;;14.40;10.10;;;;;;;;;;5153852;27;20463;-72
2022/10/11 06:05:56;;;;;;;9.50;7.80;;;;;;;;;;5154508;27;20471;-72
2022/10/11 06:08:23;;;;;;;14.50;9.37;;;;;;;;;;5154450;27;20443;-72
2022/10/11 06:10:50;;;;;;;17.47;11.00;;;;;;;;;;5154317;27;20944;-71
2022/10/11 06:13:17;;;;;;;14.80;10.73;;;;;;;;;;5154518;27;20443;-71
2022/10/11 06:15:45;;;;;;;19.60;11.60;;;;;;;;;;5150945;27;20441;-72
2022/10/11 06:18:14;;;;;;;19.60;15.87;;;;;;;;;;5154375;27;20686;-72
2022/10/11 06:20:41;;;;;;;21.63;14.13;;;;;;;;;;5151964;27;20462;-72
2022/10/11 06:23:08;;;;;;;20.87;13.93;;;;;;;;;;5154164;27;20455;-72
2022/10/11 06:25:35;;;;;;;17.10;12.57;;;;;;;;;;5153285;27;20535;-72
2022/10/11 06:28:02;;;;;;;15.53;12.00;;;;;;;;;;5153712;27;20835;-72
2022/10/11 06:30:29;;;;;;;13.30;9.97;;;;;;;;;;5154183;27;20455;-71
2022/10/11 06:32:56;;;;;;;16.10;10.87;;;;;;;;;;5154322;27;20505;-72
2022/10/11 06:35:25;;;;;;;16.03;11.87;;;;;;;;;;5152697;27;20488;-72
2022/10/11 06:37:52;;;;;;;23.53;17.13;;;;;;;;;;5158596;27;20451;-72
2022/10/11 06:40:19;;;;;;;17.67;12.70;;;;;;;;;;5158174;27;20451;-72
2022/10/11 06:42:48;;;;;;;15.10;10.70;;;;;;;;;;5158615;27;20447;-72
2022/10/11 06:45:15;;;;;;;17.13;9.67;;;;;;;;;;5157771;27;20491;-72
2022/10/11 06:47:42;;;;;;;12.03;8.40;;;;;;;;;;5150862;27;20471;-72
2022/10/11 06:50:10;;;;;;;14.00;10.20;;;;;;;;;;5136121;27;20468;-71
2022/10/11 06:52:38;;;;;;;18.43;12.90;;;;;;;;;;5135611;27;20836;-72
2022/10/11 06:55:06;;;;;;;13.43;9.10;;;;;;;;;;5146628;27;20968;-71
2022/10/11 06:57:33;;;;;;;9.90;8.10;;;;;;;;;;5155537;27;20447;-71
2022/10/11 07:00:00;;;;;;;8.77;7.87;;;;;;;;;;5156166;27;20454;-71
2022/10/11 07:02:27;;;;;;;14.27;9.13;;;;;;;;;;5156393;27;20952;-71
2022/10/11 07:04:54;;;;;;;10.77;8.80;;;;;;;;;;5155486;27;20487;-71
2022/10/11 07:07:22;;;;;;;11.30;8.47;;;;;;;;;;5156314;27;20464;-71
2022/10/11 07:09:50;;;;;;;14.47;8.40;;;;;;;;;;5155928;27;20964;-71
2022/10/11 07:12:17;;;;;;;12.03;8.43;;;;;;;;;;5156269;27;20461;-72
2022/10/11 07:14:44;;;;;;;12.57;8.83;;;;;;;;;;5155797;27;21094;-72
2022/10/11 07:17:11;;;;;;;14.23;8.30;;;;;;;;;;5155889;27;20443;-71
2022/10/11 07:19:39;;;;;;;17.37;7.60;;;;;;;;;;5155249;27;20749;-71
2022/10/11 07:22:06;;;;;;;16.03;8.23;;;;;;;;;;5156260;27;20458;-72
2022/10/11 07:24:33;;;;;;;9.80;7.87;;;;;;;;;;5155529;27;21000;-71
2022/10/11 07:27:02;;;;;;;12.03;7.80;;;;;;;;;;5156363;27;20455;-71
2022/10/11 07:29:29;;;;;;;11.77;8.20;;;;;;;;;;5156115;27;20447;-71
2022/10/11 07:31:56;;;;;;;10.60;8.67;;;;;;;;;;5155663;27;20546;-71
2022/10/11 07:34:23;;;;;;;12.57;8.27;;;;;;;;;;5155837;27;20447;-71
2022/10/11 07:36:50;;;;;;;12.43;8.17;;;;;;;;;;5155491;27;20486;-71
2022/10/11 07:39:17;;;;;;;9.77;7.13;;;;;;;;;;5155528;27;20451;-71
2022/10/11 07:41:45;;;;;;;8.53;6.80;;;;;;;;;;5144461;27;20933;-71
2022/10/11 07:44:13;;;;;;;10.60;7.93;;;;;;;;;;5135452;27;20463;-71
2022/10/11 07:46:40;;;;;;;9.27;6.40;;;;;;;;;;5136240;27;20517;-71
2022/10/11 07:49:07;;;;;;;11.10;6.90;;;;;;;;;;5135566;27;20945;-71
2022/10/11 07:51:35;;;;;;;11.90;6.90;;;;;;;;;;5136413;27;20455;-71
2022/10/11 07:54:03;;;;;;;16.60;7.53;;;;;;;;;;5140918;27;20464;-71
2022/10/11 07:56:31;;;;;;;7.70;6.70;;;;;;;;;;5155980;27;20474;-71
2022/10/11 07:58:59;;;;;;;9.83;6.97;;;;;;;;;;5156720;27;20439;-72
2022/10/11 08:01:28;;;;;;;8.13;6.23;;;;;;;;;;5157012;27;20458;-71
2022/10/11 08:03:55;;;;;;;10.03;6.57;;;;;;;;;;5156752;27;20809;-71
2022/10/11 08:06:24;;;;;;;9.23;5.57;;;;;;;;;;5156740;27;20988;-72
2022/10/11 08:08:52;;;;;;;7.30;5.77;;;;;;;;;;5156995;27;20451;-72
2022/10/11 08:11:22;;;;;;;11.80;5.93;;;;;;;;;;5156720;27;20478;-72
2022/10/11 08:13:49;;;;;;;9.83;6.10;;;;;;;;;;5155952;27;20466;-72
2022/10/11 08:16:16;;;;;;;6.83;5.77;;;;;;;;;;5156703;27;20477;-72
2022/10/11 08:18:45;;;;;;;9.40;5.90;;;;;;;;;;5156929;27;20453;-72
2022/10/11 08:21:13;;;;;;;11.33;6.30;;;;;;;;;;5154973;27;20455;-72
2022/10/11 08:23:41;;;;;;;8.30;6.23;;;;;;;;;;5155893;27;20443;-72
2022/10/11 08:26:08;;;;;;;8.40;6.37;;;;;;;;;;5156032;27;20494;-72
2022/10/11 08:28:36;;;;;;;9.20;6.30;;;;;;;;;;5156684;27;20998;-72
2022/10/11 08:31:03;;;;;;;11.53;8.23;;;;;;;;;;5155692;27;20459;-72
2022/10/11 08:33:30;;;;;;;10.43;6.73;;;;;;;;;;5156133;27;20458;-72
2022/10/11 08:35:59;;;;;;;9.63;6.43;;;;;;;;;;5156144;27;20968;-72
2022/10/11 08:38:26;;;;;;;11.40;6.57;;;;;;;;;;5156367;27;20447;-71
2022/10/11 08:40:54;;;;;;;11.07;6.80;;;;;;;;;;5156309;27;20452;-71
2022/10/11 08:43:30;;;;;;;10.10;6.67;;;;;;;;;;5156295;27;20448;-71
2022/10/11 08:45:58;;;;;;;8.03;6.73;;;;;;;;;;5156016;27;20483;-71
2022/10/11 08:48:29;;;;;;;15.53;8.00;;;;;;;;;;5156647;27;20808;-71
2022/10/11 08:50:57;;;;;;;11.43;7.13;;;;;;;;;;5156300;27;20447;-71
2022/10/11 08:53:28;;;;;;;12.83;7.63;;;;;;;;;;5155825;27;20463;-71
2022/10/11 08:55:56;;;;;;;9.90;6.90;;;;;;;;;;5156185;27;20456;-71
2022/10/11 08:58:24;;;;;;;8.77;6.57;;;;;;;;;;5155898;27;20447;-72
2022/10/11 09:00:53;;;;;;;9.77;8.13;;;;;;;;;;5156072;27;20813;-72
2022/10/11 09:03:24;;;;;;;8.53;6.80;;;;;;;;;;5156075;27;20516;-72
2022/10/11 09:06:01;;;;;;;10.50;6.60;;;;;;;;;;5155460;27;20847;-73
2022/10/11 09:08:32;;;;;;;9.73;7.30;;;;;;;;;;5155789;27;20827;-72
2022/10/11 09:11:05;;;;;;;14.73;7.53;;;;;;;;;;5155685;27;20466;-72
2022/10/11 09:13:43;;;;;;;8.57;7.03;;;;;;;;;;5155317;27;20929;-73
2022/10/11 09:16:17;;;;;;;10.43;8.00;;;;;;;;;;5155470;27;20464;-72
2022/10/11 09:18:52;;;;;;;10.33;6.90;;;;;;;;;;5155566;27;20831;-73
2022/10/11 09:21:26;;;;;;;8.00;6.73;;;;;;;;;;5153854;27;20813;-72
2022/10/11 09:24:06;;;;;;;10.90;8.00;;;;;;;;;;5155081;27;20519;-73
2022/10/11 09:26:36;;;;;;;15.57;8.07;;;;;;;;;;5155012;27;20489;-72
2022/10/11 09:29:07;;;;;;;8.73;6.10;;;;;;;;;;5155339;27;20460;-72
2022/10/11 09:31:34;;;;;;;11.33;7.70;;;;;;;;;;5155354;27;20455;-72
2022/10/11 09:34:07;;;;;;;9.00;6.00;;;;;;;;;;5154939;27;20474;-72
2022/10/11 09:36:38;;;;;;;11.70;7.17;;;;;;;;;;5155232;27;20472;-72
2022/10/11 09:39:08;;;;;;;7.77;6.43;;;;;;;;;;5155253;27;20451;-72
2022/10/11 09:41:39;;;;;;;13.97;6.30;;;;;;;;;;5155099;27;20444;-72
2022/10/11 09:44:07;;;;;;;9.50;7.47;;;;;;;;;;5154759;27;20470;-73
2022/10/11 09:46:36;;;;;;;10.47;7.33;;;;;;;;;;5154596;27;20487;-72
2022/10/11 09:49:04;;;;;;;9.60;7.63;;;;;;;;;;5154948;27;20444;-72
2022/10/11 09:51:31;;;;;;;19.90;7.13;;;;;;;;;;5155147;27;20821;-72
2022/10/11 09:53:59;;;;;;;9.60;6.10;;;;;;;;;;5154542;27;20448;-72
2022/10/11 09:56:28;;;;;;;7.40;6.13;;;;;;;;;;5154739;27;20848;-72
2022/10/11 09:59:09;;;;;;;7.30;5.67;;;;;;;;;;5154973;27;20454;-72
2022/10/11 10:01:36;;;;;;;9.33;6.00;;;;;;;;;;5154820;27;20454;-72
2022/10/11 10:04:08;;;;;;;10.80;6.03;;;;;;;;;;5154481;27;20572;-72
2022/10/11 10:06:36;;;;;;;10.17;5.90;;;;;;;;;;5154281;27;20559;-72
2022/10/11 10:09:18;;;;;;;11.77;5.80;;;;;;;;;;5154832;27;20474;-72
2022/10/11 10:11:46;;;;;;;12.53;7.57;;;;;;;;;;5133298;27;20832;-72
2022/10/11 10:14:20;;;;;;;5.93;5.33;;;;;;;;;;5154035;27;20462;-72
2022/10/11 10:16:47;;;;;;;7.37;5.60;;;;;;;;;;5154575;27;20439;-72
2022/10/11 10:19:20;;;;;;;7.13;4.80;;;;;;;;;;5154815;27;20804;-72
2022/10/11 10:21:48;;;;;;;7.37;6.27;;;;;;;;;;5152989;27;20884;-72
2022/10/11 10:24:19;;;;;;;9.37;7.70;;;;;;;;;;5154233;27;20808;-72
2022/10/11 10:27:05;;;;;;;15.13;7.30;;;;;;;;;;5154274;27;20483;-72
2022/10/11 10:29:34;;;;;;;9.17;5.50;;;;;;;;;;5154364;27;20450;-72
2022/10/11 10:32:04;;;;;;;9.93;6.87;;;;;;;;;;5154481;27;20496;-72
2022/10/11 10:34:33;;;;;;;9.83;6.50;;;;;;;;;;5153907;27;20454;-72
2022/10/11 10:37:03;;;;;;;10.20;6.60;;;;;;;;;;5154340;27;20444;-72
2022/10/11 10:39:34;;;;;;;14.43;6.23;;;;;;;;;;5154269;27;20475;-72
2022/10/11 10:42:04;;;;;;;10.70;6.40;;;;;;;;;;5154429;27;20832;-72
2022/10/11 10:44:31;;;;;;;8.67;6.50;;;;;;;;;;5154072;27;20825;-72
2022/10/11 10:47:05;;;;;;;9.40;6.40;;;;;;;;;;5154368;27;20999;-72
2022/10/11 10:49:36;;;;;;;8.53;5.33;;;;;;;;;;5154154;27;20507;-72
2022/10/11 10:52:25;;;;;;;8.83;4.40;;;;;;;;;;5154263;27;20448;-72
2022/10/11 10:54:56;;;;;;;8.13;5.17;;;;;;;;;;5153366;27;20468;-72
2022/10/11 10:57:28;;;;;;;11.43;5.47;;;;;;;;;;5154105;27;20458;-72
2022/10/11 11:00:03;;;;;;;5.67;4.37;;;;;;;;;;5154243;27;20438;-72
2022/10/11 11:02:35;;;;;;;8.63;5.03;;;;;;;;;;5154213;27;20442;-72
2022/10/11 11:05:06;;;;;;;12.20;5.67;;;;;;;;;;5153798;27;20467;-72
2022/10/11 11:07:37;;;;;;;7.90;5.27;;;;;;;;;;5154159;27;20826;-72
2022/10/11 11:10:07;;;;;;;9.23;5.27;;;;;;;;;;5154138;27;20461;-72
2022/10/11 11:12:44;;;;;;;16.80;6.30;;;;;;;;;;5153849;27;20456;-72
2022/10/11 11:15:14;;;;;;;8.70;5.87;;;;;;;;;;5150380;27;20475;-72
2022/10/11 11:17:51;;;;;;;11.80;7.00;;;;;;;;;;5152686;27;20450;-72
2022/10/11 11:20:24;;;;;;;8.80;5.23;;;;;;;;;;5150404;27;20447;-72
2022/10/11 11:22:55;;;;;;;12.33;4.80;;;;;;;;;;5152926;27;20467;-72
2022/10/11 11:25:29;;;;;;;6.33;5.00;;;;;;;;;;5155632;27;20471;-72
2022/10/11 11:28:03;;;;;;;7.50;4.57;;;;;;;;;;5156169;27;20848;-72
2022/10/11 11:30:36;;;;;;;6.20;4.30;;;;;;;;;;5155929;27;20450;-72
2022/10/11 11:33:10;;;;;;;7.90;4.23;;;;;;;;;;5156335;27;20451;-72
2022/10/11 11:35:39;;;;;;;9.63;4.57;;;;;;;;;;5155492;27;20467;-72
2022/10/11 11:38:11;;;;;;;9.17;5.67;;;;;;;;;;5155674;27;20496;-72
2022/10/11 11:40:40;;;;;;;7.73;3.87;;;;;;;;;;5156203;27;21008;-72
2022/10/11 11:43:13;;;;;;;7.83;5.17;;;;;;;;;;5156117;27;20458;-72
2022/10/11 11:45:44;;;;;;;4.07;3.37;;;;;;;;;;5154853;27;20494;-73
2022/10/11 11:48:15;;;;;;;5.40;3.70;;;;;;;;;;5156056;27;20451;-72
2022/10/11 11:50:44;;;;;;;5.90;3.27;;;;;;;;;;5155825;27;20448;-72
2022/10/11 11:53:15;;;;;;;5.00;3.40;;;;;;;;;;5155401;27;20932;-72
2022/10/11 11:55:44;;;;;;;9.23;4.40;;;;;;;;;;5155180;27;20843;-72
2022/10/11 11:58:18;;;;;;;11.57;3.60;;;;;;;;;;5155977;27;20469;-72
2022/10/11 12:00:51;;;;;;;7.23;4.10;;;;;;;;;;5155163;27;20478;-72
2022/10/11 12:03:20;;;;;;;7.47;4.40;;;;;;;;;;5155719;27;20817;-73
2022/10/11 12:06:02;;;;;;;7.43;4.87;;;;;;;;;;5154887;27;20480;-73
2022/10/11 12:08:31;;;;;;;6.80;4.13;;;;;;;;;;5155206;27;20461;-73
2022/10/11 12:11:01;;;;;;;6.90;4.70;;;;;;;;;;5155792;27;20948;-73
2022/10/11 12:13:34;;;;;;;5.23;4.73;;;;;;;;;;5154696;27;20936;-72
2022/10/11 12:16:09;;;;;;;13.43;4.50;;;;;;;;;;5155354;27;20512;-72
2022/10/11 12:18:47;;;;;;;13.67;4.97;;;;;;;;;;5155519;27;20447;-72
2022/10/11 12:21:19;;;;;;;3.30;2.43;;;;;;;;;;5153110;27;20439;-72
2022/10/11 12:23:47;;;;;;;7.60;2.90;;;;;;;;;;5154783;27;20458;-72
2022/10/11 12:26:41;;;;;;;8.17;3.80;;;;;;;;;;5154599;27;20569;-72
2022/10/11 12:29:24;;;;;;;11.63;4.73;;;;;;;;;;5154796;27;20487;-72
2022/10/11 12:32:11;;;;;;;10.70;5.03;;;;;;;;;;5153141;27;20463;-72
2022/10/11 12:34:39;;;;;;;6.50;4.47;;;;;;;;;;5153746;27;20991;-72
2022/10/11 12:37:24;;;;;;;6.87;4.67;;;;;;;;;;5154640;27;20443;-72
2022/10/11 12:39:52;;;;;;;10.37;5.50;;;;;;;;;;5154070;27;20447;-72
2022/10/11 12:42:27;;;;;;;14.00;4.90;;;;;;;;;;5154708;27;20936;-72
2022/10/11 12:45:15;;;;;;;9.63;4.27;;;;;;;;;;5153755;27;20987;-72
2022/10/11 12:47:46;;;;;;;8.23;5.03;;;;;;;;;;5147968;27;21055;-72
2022/10/11 12:50:17;;;;;;;13.90;5.47;;;;;;;;;;5154660;27;20455;-72
2022/10/11 12:52:54;;;;;;;7.60;4.77;;;;;;;;;;5154029;27;20451;-72
2022/10/11 12:55:48;;;;;;;13.93;5.33;;;;;;;;;;5154171;27;20563;-72
2022/10/11 12:58:24;;;;;;;13.30;5.20;;;;;;;;;;5105143;27;20956;-72
2022/10/11 13:01:24;;;;;;;9.13;4.87;;;;;;;;;;5154554;27;20427;-72
2022/10/11 13:03:58;;;;;;;7.23;4.83;;;;;;;;;;5153928;27;20452;-72
2022/10/11 13:06:27;;;;;;;6.30;5.00;;;;;;;;;;5153930;27;20491;-72
2022/10/11 13:08:55;;;;;;;8.80;5.37;;;;;;;;;;5154322;27;20462;-72
2022/10/11 13:11:25;;;;;;;6.73;5.40;;;;;;;;;;5154206;27;20463;-72
2022/10/11 13:13:56;;;;;;;9.13;4.97;;;;;;;;;;5153286;27;20447;-72
2022/10/11 13:16:28;;;;;;;7.93;5.60;;;;;;;;;;5154102;27;20463;-72
2022/10/11 13:18:58;;;;;;;11.10;5.77;;;;;;;;;;5154324;27;20453;-72
2022/10/11 13:21:28;;;;;;;10.70;5.67;;;;;;;;;;5152072;27;20458;-72
2022/10/11 13:23:56;;;;;;;15.03;6.13;;;;;;;;;;5153846;27;20483;-72
2022/10/11 13:26:23;;;;;;;15.93;9.13;;;;;;;;;;5154882;27;20987;-72
2022/10/11 13:28:51;;;;;;;10.23;6.70;;;;;;;;;;5155079;27;20454;-72
2022/10/11 13:31:18;;;;;;;10.27;6.60;;;;;;;;;;5155018;27;20452;-72
2022/10/11 13:33:46;;;;;;;8.50;7.00;;;;;;;;;;5154586;27;20818;-72
2022/10/11 13:36:16;;;;;;;12.53;7.70;;;;;;;;;;5154817;27;20473;-72
2022/10/11 13:38:50;;;;;;;13.03;6.80;;;;;;;;;;5154945;27;20447;-72
2022/10/11 13:41:17;;;;;;;15.80;6.83;;;;;;;;;;5155144;27;20462;-72
2022/10/11 13:43:44;;;;;;;12.60;8.60;;;;;;;;;;5154286;27;20444;-71
2022/10/11 13:46:16;;;;;;;10.87;7.10;;;;;;;;;;5153972;27;21006;-72
2022/10/11 13:48:43;;;;;;;10.60;6.97;;;;;;;;;;5155066;27;20528;-72
2022/10/11 13:51:15;;;;;;;10.40;7.43;;;;;;;;;;5155085;27;20479;-72
2022/10/11 13:53:58;;;;;;;10.60;7.20;;;;;;;;;;5152710;27;20452;-72
2022/10/11 13:56:26;;;;;;;9.47;8.23;;;;;;;;;;5154753;27;20463;-72
2022/10/11 13:58:53;;;;;;;15.90;8.03;;;;;;;;;;5154599;27;20462;-72
2022/10/11 14:01:22;;;;;;;10.37;7.20;;;;;;;;;;5154825;27;20448;-72
2022/10/11 14:03:52;;;;;;;12.80;9.40;;;;;;;;;;5151284;27;20452;-72
2022/10/11 14:06:20;;;;;;;9.47;6.70;;;;;;;;;;5153381;27;21014;-72
2022/10/11 14:08:48;;;;;;;19.70;7.37;;;;;;;;;;5153412;27;20932;-72
2022/10/11 14:11:31;;;;;;;11.80;7.07;;;;;;;;;;5152762;27;20947;-72
2022/10/11 14:13:59;;;;;;;13.50;8.63;;;;;;;;;;5152505;27;20948;-72
2022/10/11 14:16:29;;;;;;;14.20;7.50;;;;;;;;;;5152907;27;20464;-72
2022/10/11 14:19:09;;;;;;;9.07;8.10;;;;;;;;;;5152903;27;20447;-72
2022/10/11 14:21:48;;;;;;;14.53;8.47;;;;;;;;;;5152853;27;20928;-72
2022/10/11 14:24:16;;;;;;;15.30;7.93;;;;;;;;;;5152250;27;20512;-72
2022/10/11 14:26:46;;;;;;;12.43;8.13;;;;;;;;;;5153349;27;20531;-72
2022/10/11 14:29:16;;;;;;;8.77;7.87;;;;;;;;;;5153895;27;20534;-72
2022/10/11 14:31:44;;;;;;;13.03;8.33;;;;;;;;;;5154137;27;20823;-72
2022/10/11 14:34:15;;;;;;;12.10;9.33;;;;;;;;;;5153990;27;20907;-72
2022/10/11 14:36:42;;;;;;;16.10;8.70;;;;;;;;;;5154126;27;21003;-72
2022/10/11 14:39:11;;;;;;;14.00;9.53;;;;;;;;;;5154058;27;20462;-72
2022/10/11 14:41:38;;;;;;;13.43;10.47;;;;;;;;;;5154185;27;20447;-72
2022/10/11 14:44:07;;;;;;;15.97;10.33;;;;;;;;;;5153602;27;20448;-72
2022/10/11 14:46:35;;;;;;;13.83;10.30;;;;;;;;;;5154094;27;20483;-73
2022/10/11 14:49:02;;;;;;;14.17;11.70;;;;;;;;;;5154217;27;20452;-73